createdAt,value
2023-05-06T00:02:13.094Z,20.48
2023-05-06T00:04:41.121Z,17.30
2023-05-06T00:07:08.617Z,19.90
2023-05-06T00:09:35.291Z,17.98
2023-05-06T00:12:01.966Z,17.13
2023-05-06T00:14:28.634Z,17.98
2023-05-06T00:16:55.705Z,15.90
2023-05-06T00:19:22.701Z,14.73
2023-05-06T00:21:49.497Z,15.30
2023-05-06T00:24:16.179Z,16.95
2023-05-06T00:26:42.815Z,17.05
2023-05-06T00:29:09.708Z,14.07
2023-05-06T00:31:36.441Z,19.80
2023-05-06T00:34:03.230Z,17.85
2023-05-06T00:36:30.148Z,16.90
2023-05-06T00:38:56.889Z,18.25
2023-05-06T00:41:23.580Z,21.60
2023-05-06T00:43:50.561Z,22.83
2023-05-06T00:46:17.617Z,23.95
2023-05-06T00:48:45.349Z,23.73
2023-05-06T00:51:12.651Z,19.50
2023-05-06T00:53:40.158Z,19.80
2023-05-06T00:56:07.505Z,17.85
2023-05-06T00:58:35.053Z,18.50
2023-05-06T01:01:02.243Z,13.98
2023-05-06T01:03:29.277Z,16.35
2023-05-06T01:06:19.224Z,17.67
2023-05-06T01:08:55.020Z,16.73
2023-05-06T01:11:33.103Z,16.80
2023-05-06T01:14:06.527Z,17.38
2023-05-06T01:16:36.411Z,17.25
2023-05-06T01:19:08.860Z,16.77
2023-05-06T01:21:37.943Z,20.92
2023-05-06T01:24:04.845Z,17.50
2023-05-06T01:26:31.706Z,15.57
2023-05-06T01:28:58.880Z,17.85
2023-05-06T01:31:50.802Z,16.17
2023-05-06T01:34:27.268Z,17.55
2023-05-06T01:37:12.847Z,16.52
2023-05-06T01:39:41.733Z,15.07
2023-05-06T01:42:10.281Z,15.00
2023-05-06T01:44:38.934Z,14.35
2023-05-06T01:47:07.448Z,13.82
2023-05-06T01:49:34.600Z,19.02
2023-05-06T01:52:02.464Z,13.70
2023-05-06T01:54:29.253Z,15.75
2023-05-06T01:56:55.969Z,16.90
2023-05-06T01:59:22.756Z,19.08
2023-05-06T02:01:49.508Z,17.83
2023-05-06T02:04:16.302Z,17.17
2023-05-06T02:06:43.102Z,14.23
2023-05-06T02:09:09.857Z,18.48
2023-05-06T02:11:36.598Z,17.55
2023-05-06T02:14:03.344Z,19.85
2023-05-06T02:16:30.254Z,15.23
2023-05-06T02:18:57.049Z,17.17
2023-05-06T02:21:24.089Z,16.90
2023-05-06T02:23:50.851Z,16.52
2023-05-06T02:26:17.605Z,14.73
2023-05-06T02:28:44.342Z,13.90
2023-05-06T02:31:15.126Z,14.63
2023-05-06T02:33:42.144Z,13.30
2023-05-06T02:36:08.964Z,15.32
2023-05-06T02:38:35.751Z,12.90
2023-05-06T02:41:02.499Z,14.25
2023-05-06T02:43:29.230Z,15.43
2023-05-06T02:45:55.991Z,15.05
2023-05-06T02:48:22.737Z,14.38
2023-05-06T02:50:49.979Z,12.70
2023-05-06T02:53:16.659Z,12.15
2023-05-06T02:55:43.388Z,13.10
2023-05-06T02:58:10.100Z,17.42
2023-05-06T03:00:37.051Z,12.68
2023-05-06T03:03:04.170Z,13.15
2023-05-06T03:05:31.087Z,14.88
2023-05-06T03:07:57.976Z,11.82
2023-05-06T03:10:24.663Z,11.23
2023-05-06T03:12:51.421Z,12.57
2023-05-06T03:15:18.108Z,12.07
2023-05-06T03:17:46.676Z,12.65
2023-05-06T03:20:13.867Z,12.68
2023-05-06T03:22:42.554Z,11.93
2023-05-06T03:25:09.595Z,11.60
2023-05-06T03:27:36.549Z,13.40
2023-05-06T03:30:03.995Z,15.77
2023-05-06T03:32:31.050Z,10.77
2023-05-06T03:34:57.847Z,11.60
2023-05-06T03:37:24.651Z,13.18
2023-05-06T03:39:51.336Z,11.05
2023-05-06T03:42:18.116Z,15.00
2023-05-06T03:44:44.818Z,12.18
2023-05-06T03:47:11.506Z,13.27
2023-05-06T03:49:38.188Z,19.02
2023-05-06T03:52:05.362Z,14.25
2023-05-06T03:54:32.088Z,13.15
2023-05-06T03:56:58.781Z,15.77
2023-05-06T03:59:25.663Z,14.95
2023-05-06T04:01:52.372Z,17.85
2023-05-06T04:04:19.240Z,27.98
2023-05-06T04:06:45.924Z,16.90
2023-05-06T04:09:12.625Z,15.93
2023-05-06T04:11:39.299Z,16.20
2023-05-06T04:14:06.092Z,15.65
2023-05-06T04:16:32.821Z,16.33
2023-05-06T04:18:59.578Z,15.75
2023-05-06T04:21:26.388Z,20.58
2023-05-06T04:23:54.677Z,20.90
2023-05-06T04:26:21.739Z,18.70
2023-05-06T04:28:48.440Z,16.85
2023-05-06T04:31:15.653Z,16.08
2023-05-06T04:33:42.471Z,18.35
2023-05-06T04:36:09.471Z,19.83
2023-05-06T04:38:37.447Z,22.02
2023-05-06T04:41:05.627Z,23.48
2023-05-06T04:43:32.914Z,17.92
2023-05-06T04:45:59.949Z,16.45
2023-05-06T04:48:26.917Z,18.52
2023-05-06T04:50:53.710Z,19.63
2023-05-06T04:53:20.572Z,19.80
2023-05-06T04:55:47.302Z,19.95
2023-05-06T04:58:14.502Z,20.65
2023-05-06T05:00:41.424Z,17.27
2023-05-06T05:03:08.289Z,17.38
2023-05-06T05:05:35.053Z,15.75
2023-05-06T05:08:01.840Z,15.27
2023-05-06T05:10:28.651Z,14.85
2023-05-06T05:12:55.431Z,14.32
2023-05-06T05:15:22.210Z,15.48
2023-05-06T05:17:50.574Z,16.52
2023-05-06T05:20:17.364Z,18.00
2023-05-06T05:22:44.061Z,16.30
2023-05-06T05:25:10.912Z,16.48
2023-05-06T05:27:37.850Z,16.25
2023-05-06T05:30:04.981Z,13.90
2023-05-06T05:32:31.723Z,14.98
2023-05-06T05:34:58.508Z,14.48
2023-05-06T05:37:25.232Z,14.43
2023-05-06T05:39:52.057Z,15.50
2023-05-06T05:42:18.816Z,13.95
2023-05-06T05:44:45.704Z,17.25
2023-05-06T05:47:12.785Z,16.90
2023-05-06T05:49:39.571Z,16.90
2023-05-06T05:52:07.240Z,13.38
2023-05-06T05:54:34.015Z,14.68
2023-05-06T05:57:00.922Z,15.13
2023-05-06T05:59:28.777Z,16.75
2023-05-06T06:01:55.519Z,18.55
2023-05-06T06:04:22.226Z,15.93
2023-05-06T06:06:49.023Z,14.07
2023-05-06T06:09:16.912Z,15.38
2023-05-06T06:11:43.736Z,15.18
2023-05-06T06:14:11.304Z,14.95
2023-05-06T06:16:38.361Z,17.80
2023-05-06T06:19:05.417Z,14.82
2023-05-06T06:21:32.267Z,14.00
2023-05-06T06:23:59.160Z,13.68
2023-05-06T06:26:25.978Z,13.82
2023-05-06T06:28:52.786Z,15.50
2023-05-06T06:31:19.498Z,13.90
2023-05-06T06:33:46.191Z,13.00
2023-05-06T06:36:12.889Z,13.43
2023-05-06T06:38:40.155Z,13.00
2023-05-06T06:41:06.924Z,13.50
2023-05-06T06:43:33.825Z,12.05
2023-05-06T06:46:00.869Z,12.45
2023-05-06T06:48:27.644Z,10.10
2023-05-06T06:50:54.383Z,12.35
2023-05-06T06:53:21.375Z,9.80
2023-05-06T06:55:48.297Z,10.68
2023-05-06T06:58:15.081Z,10.57
2023-05-06T07:00:41.895Z,10.00
2023-05-06T07:03:08.690Z,9.40
2023-05-06T07:05:35.457Z,9.13
2023-05-06T07:08:02.181Z,10.20
2023-05-06T07:10:28.964Z,9.00
2023-05-06T07:12:55.781Z,9.18
2023-05-06T07:15:22.577Z,9.00
2023-05-06T07:17:49.407Z,9.25
2023-05-06T07:20:16.329Z,8.65
2023-05-06T07:22:43.748Z,8.60
2023-05-06T07:25:10.705Z,7.55
2023-05-06T07:27:37.962Z,8.10
2023-05-06T07:30:05.187Z,7.60
2023-05-06T07:32:31.963Z,7.82
2023-05-06T07:34:58.750Z,7.90
2023-05-06T07:37:25.560Z,8.48
2023-05-06T07:39:52.255Z,11.20
2023-05-06T07:42:19.021Z,7.63
2023-05-06T07:44:45.707Z,7.60
2023-05-06T07:47:14.637Z,8.05
2023-05-06T07:49:41.400Z,7.47
2023-05-06T07:52:08.131Z,7.82
2023-05-06T07:54:34.818Z,8.88
2023-05-06T07:57:02.512Z,7.32
2023-05-06T07:59:29.174Z,6.80
2023-05-06T08:01:55.866Z,7.68
2023-05-06T08:04:23.378Z,8.27
2023-05-06T08:06:50.124Z,7.03
2023-05-06T08:09:22.634Z,6.82
2023-05-06T08:11:50.844Z,6.18
2023-05-06T08:14:17.603Z,5.90
2023-05-06T08:16:45.549Z,5.25
2023-05-06T08:19:12.306Z,6.07
2023-05-06T08:21:39.005Z,5.60
2023-05-06T08:24:05.852Z,6.03
2023-05-06T08:26:32.595Z,5.65
2023-05-06T08:28:59.618Z,6.72
2023-05-06T08:31:26.900Z,6.72
2023-05-06T08:33:54.759Z,5.18
2023-05-06T08:36:22.432Z,5.47
2023-05-06T08:38:50.880Z,4.78
2023-05-06T08:41:19.714Z,4.60
2023-05-06T08:43:48.559Z,6.13
2023-05-06T08:46:16.813Z,6.15
2023-05-06T08:48:43.917Z,7.20
2023-05-06T08:51:14.802Z,6.82
2023-05-06T08:53:48.866Z,5.78
2023-05-06T08:56:16.729Z,6.32
2023-05-06T08:58:46.733Z,8.30
2023-05-06T09:01:15.300Z,6.72
2023-05-06T09:03:44.197Z,5.28
2023-05-06T09:06:10.962Z,5.00
2023-05-06T09:08:37.775Z,4.97
2023-05-06T09:11:20.180Z,5.35
2023-05-06T09:13:47.315Z,4.45
2023-05-06T09:16:28.528Z,5.25
2023-05-06T09:18:55.721Z,7.60
2023-05-06T09:21:29.276Z,4.28
2023-05-06T09:23:56.191Z,4.45
2023-05-06T09:26:23.432Z,5.18
2023-05-06T09:28:51.698Z,3.50
2023-05-06T09:31:18.469Z,3.35
2023-05-06T09:33:45.212Z,5.28
2023-05-06T09:36:13.536Z,4.45
2023-05-06T09:38:41.275Z,2.65
2023-05-06T09:41:08.509Z,4.22
2023-05-06T09:43:37.459Z,3.05
2023-05-06T09:46:06.501Z,3.80
2023-05-06T09:48:33.815Z,3.88
2023-05-06T09:51:01.587Z,3.60
2023-05-06T09:53:29.413Z,2.53
2023-05-06T09:55:58.442Z,2.60
2023-05-06T09:58:26.265Z,2.90
2023-05-06T10:00:53.315Z,3.55
2023-05-06T10:03:21.898Z,2.50
2023-05-06T10:05:49.766Z,4.90
2023-05-06T10:08:19.036Z,3.03
2023-05-06T10:10:49.193Z,2.95
2023-05-06T10:13:17.402Z,3.03
2023-05-06T10:15:47.077Z,2.88
2023-05-06T10:18:16.817Z,3.38
2023-05-06T10:20:44.724Z,3.40
2023-05-06T10:23:37.674Z,2.63
2023-05-06T10:26:10.601Z,3.47
2023-05-06T10:28:41.180Z,6.55
2023-05-06T10:31:12.997Z,5.45
2023-05-06T10:33:42.546Z,3.90
2023-05-06T10:36:21.586Z,2.75
2023-05-06T10:39:00.747Z,2.80
2023-05-06T10:41:29.093Z,3.33
2023-05-06T10:43:57.134Z,4.18
2023-05-06T10:46:26.288Z,2.40
2023-05-06T10:49:11.461Z,2.67
2023-05-06T10:51:39.294Z,2.80
2023-05-06T10:54:07.761Z,4.72
2023-05-06T10:56:50.668Z,2.83
2023-05-06T10:59:25.782Z,4.65
2023-05-06T11:02:09.480Z,2.88
2023-05-06T11:04:37.552Z,4.97
2023-05-06T11:07:07.917Z,2.10
2023-05-06T11:10:19.938Z,2.13
2023-05-06T11:12:52.660Z,5.95
2023-05-06T11:15:40.199Z,1.55
2023-05-06T11:18:25.621Z,1.70
2023-05-06T11:21:12.786Z,2.45
2023-05-06T11:23:42.816Z,2.92
2023-05-06T11:26:10.564Z,3.60
2023-05-06T11:28:37.448Z,1.88
2023-05-06T11:31:04.442Z,2.90
2023-05-06T11:33:36.454Z,2.45
2023-05-06T11:36:06.891Z,1.60
2023-05-06T11:38:48.000Z,3.50
2023-05-06T11:41:16.924Z,4.85
2023-05-06T11:43:49.928Z,4.38
2023-05-06T11:46:18.588Z,1.65
2023-05-06T11:48:45.477Z,3.08
2023-05-06T11:51:12.191Z,2.17
2023-05-06T11:53:39.004Z,2.75
2023-05-06T11:56:08.851Z,2.13
2023-05-06T11:58:35.675Z,2.75
2023-05-06T12:01:03.938Z,3.97
2023-05-06T12:03:32.779Z,3.05
2023-05-06T12:06:00.418Z,2.85
2023-05-06T12:08:33.188Z,1.73
2023-05-06T12:11:02.253Z,2.90
2023-05-06T12:13:29.726Z,4.57
2023-05-06T12:15:59.207Z,2.30
2023-05-06T12:18:26.687Z,3.17
2023-05-06T12:20:57.518Z,2.25
2023-05-06T12:23:26.094Z,2.25
2023-05-06T12:26:08.280Z,2.88
2023-05-06T12:28:36.713Z,3.03
2023-05-06T12:31:23.123Z,1.30
2023-05-06T12:33:50.633Z,2.20
2023-05-06T12:36:18.624Z,1.98
2023-05-06T12:39:00.508Z,3.55
2023-05-06T12:41:41.859Z,1.77
2023-05-06T12:44:34.500Z,1.50
2023-05-06T12:47:04.300Z,1.65
2023-05-06T12:49:47.986Z,2.60
2023-05-06T12:52:16.089Z,1.42
2023-05-06T12:54:42.979Z,2.22
2023-05-06T12:57:09.763Z,4.05
2023-05-06T12:59:37.345Z,6.32
2023-05-06T13:02:05.131Z,3.13
2023-05-06T13:04:32.202Z,4.80
2023-05-06T13:06:59.039Z,3.17
2023-05-06T13:09:26.072Z,1.90
2023-05-06T13:11:53.145Z,2.55
2023-05-06T13:14:19.858Z,1.77
2023-05-06T13:16:48.172Z,7.10
2023-05-06T13:19:30.873Z,4.45
2023-05-06T13:21:59.037Z,1.67
2023-05-06T13:24:25.911Z,1.58
2023-05-06T13:35:05.740Z,1.85
2023-05-06T13:37:32.422Z,1.52
2023-05-06T13:40:02.108Z,1.33
2023-05-06T13:42:41.935Z,2.88
2023-05-06T13:52:47.907Z,2.78
2023-05-06T13:55:14.985Z,2.03
2023-05-06T13:57:42.333Z,2.05
2023-05-06T14:00:10.296Z,2.45
2023-05-06T14:02:37.455Z,1.85
2023-05-06T14:05:04.716Z,1.55
2023-05-06T14:07:31.468Z,3.15
2023-05-06T14:09:58.557Z,1.98
2023-05-06T14:12:25.305Z,2.50
2023-05-06T14:14:52.162Z,1.80
2023-05-06T14:17:18.930Z,2.38
2023-05-06T14:19:45.926Z,3.97
2023-05-06T14:22:12.836Z,6.07
2023-05-06T14:24:39.582Z,2.78
2023-05-06T14:27:06.395Z,2.08
2023-05-06T14:29:33.152Z,4.20
2023-05-06T14:32:00.119Z,5.25
2023-05-06T14:34:27.524Z,3.13
2023-05-06T14:36:54.264Z,2.28
2023-05-06T14:39:20.996Z,2.13
2023-05-06T14:41:47.781Z,1.67
2023-05-06T14:44:15.266Z,5.57
2023-05-06T14:46:42.039Z,2.85
2023-05-06T14:49:08.806Z,6.68
2023-05-06T14:51:35.598Z,1.90
2023-05-06T14:54:02.325Z,3.33
2023-05-06T14:56:29.172Z,3.22
2023-05-06T14:58:56.505Z,4.07
2023-05-06T15:01:23.266Z,3.63
2023-05-06T15:03:51.238Z,2.92
2023-05-06T15:06:19.250Z,1.70
2023-05-06T15:08:46.537Z,2.67
2023-05-06T15:11:13.302Z,2.88
2023-05-06T15:13:40.058Z,2.05
2023-05-06T15:16:08.534Z,2.75
2023-05-06T15:18:38.091Z,2.92
2023-05-06T15:21:04.899Z,1.52
2023-05-06T15:23:31.662Z,4.47
2023-05-06T15:25:58.439Z,1.35
2023-05-06T15:28:25.429Z,1.50
2023-05-06T15:30:52.120Z,2.20
2023-05-06T15:33:18.878Z,1.73
2023-05-06T15:35:46.149Z,2.15
2023-05-06T15:38:12.921Z,1.95
2023-05-06T15:40:42.745Z,1.95
2023-05-06T15:43:09.816Z,2.03
2023-05-06T15:45:37.551Z,1.42
2023-05-06T15:48:04.399Z,1.40
2023-05-06T15:50:33.810Z,1.92
2023-05-06T15:53:01.644Z,1.63
2023-05-06T15:55:28.874Z,2.55
2023-05-06T15:57:57.433Z,1.55
2023-05-06T16:00:26.076Z,1.65
2023-05-06T16:03:09.741Z,1.55
2023-05-06T16:05:38.514Z,1.50
2023-05-06T16:08:05.578Z,2.40
2023-05-06T16:10:32.327Z,1.85
2023-05-06T16:12:59.278Z,4.15
2023-05-06T16:15:26.080Z,2.90
2023-05-06T16:17:52.852Z,2.67
2023-05-06T16:20:19.668Z,1.85
2023-05-06T16:22:50.640Z,1.50
2023-05-06T16:25:17.451Z,2.50
2023-05-06T16:27:44.190Z,3.70
2023-05-06T16:30:11.673Z,1.60
2023-05-06T16:32:38.565Z,1.90
2023-05-06T16:35:05.635Z,1.77
2023-05-06T16:37:32.372Z,2.30
2023-05-06T16:39:59.118Z,1.33
2023-05-06T16:42:25.899Z,1.73
2023-05-06T16:44:52.716Z,1.45
2023-05-06T16:47:24.185Z,1.67
2023-05-06T16:49:51.178Z,2.97
2023-05-06T16:52:19.185Z,2.25
2023-05-06T16:54:45.912Z,3.53
2023-05-06T16:57:12.764Z,1.30
2023-05-06T16:59:39.547Z,3.88
2023-05-06T17:02:06.694Z,2.00
2023-05-06T17:04:33.441Z,1.95
2023-05-06T17:07:00.396Z,1.77
2023-05-06T17:09:27.242Z,1.92
2023-05-06T17:11:54.002Z,2.30
2023-05-06T17:14:21.016Z,2.50
2023-05-06T17:16:47.825Z,2.15
2023-05-06T17:19:14.769Z,4.38
2023-05-06T17:21:41.697Z,2.15
2023-05-06T17:24:08.560Z,2.78
2023-05-06T17:26:35.774Z,3.28
2023-05-06T17:29:02.582Z,2.83
2023-05-06T17:31:29.378Z,3.10
2023-05-06T17:33:57.463Z,3.35
2023-05-06T17:36:24.205Z,2.30
2023-05-06T17:39:05.048Z,2.00
2023-05-06T17:41:32.541Z,2.22
2023-05-06T17:43:59.509Z,5.00
2023-05-06T17:46:26.725Z,2.25
2023-05-06T17:48:53.703Z,2.05
2023-05-06T17:51:20.939Z,3.17
2023-05-06T17:53:47.707Z,4.05
2023-05-06T17:56:14.462Z,3.08
2023-05-06T17:58:41.284Z,4.50
2023-05-06T18:01:08.971Z,3.17
2023-05-06T18:03:35.935Z,2.40
2023-05-06T18:06:02.842Z,3.15
2023-05-06T18:08:29.659Z,3.10
2023-05-06T18:10:56.628Z,3.75
2023-05-06T18:13:23.592Z,2.97
2023-05-06T18:15:50.337Z,2.17
2023-05-06T18:18:17.144Z,2.47
2023-05-06T18:20:43.963Z,2.75
2023-05-06T18:23:10.737Z,3.58
2023-05-06T18:25:37.515Z,2.90
2023-05-06T18:28:05.490Z,3.72
2023-05-06T18:30:32.232Z,3.15
2023-05-06T18:32:59.038Z,5.53
2023-05-06T18:35:25.877Z,5.78
2023-05-06T18:37:52.623Z,3.05
2023-05-06T18:40:19.431Z,3.63
2023-05-06T18:42:47.486Z,3.15
2023-05-06T18:45:14.306Z,2.47
2023-05-06T18:47:41.127Z,3.08
2023-05-06T18:50:08.861Z,4.20
2023-05-06T18:52:38.534Z,4.28
2023-05-06T18:55:06.018Z,2.15
2023-05-06T18:57:32.783Z,3.20
2023-05-06T18:59:59.554Z,3.25
2023-05-06T19:02:26.775Z,3.40
2023-05-06T19:04:53.561Z,3.38
2023-05-06T19:07:20.418Z,2.47
2023-05-06T19:09:47.174Z,2.80
2023-05-06T19:12:15.177Z,2.63
2023-05-06T19:14:41.930Z,5.13
2023-05-06T19:17:08.751Z,3.17
2023-05-06T19:19:35.555Z,4.32
2023-05-06T19:22:02.326Z,3.17
2023-05-06T19:24:30.630Z,4.22
2023-05-06T19:26:57.383Z,3.30
2023-05-06T19:29:24.313Z,4.38
2023-05-06T19:31:51.053Z,3.47
2023-05-06T19:34:17.974Z,4.45
2023-05-06T19:36:44.945Z,3.38
2023-05-06T19:39:11.694Z,3.53
2023-05-06T19:41:39.440Z,2.88
2023-05-06T19:44:06.330Z,4.00
2023-05-06T19:46:33.137Z,3.83
2023-05-06T19:49:00.921Z,5.07
2023-05-06T19:51:28.404Z,4.50
2023-05-06T19:53:55.164Z,4.13
2023-05-06T19:56:22.007Z,3.13
2023-05-06T19:58:50.955Z,11.55
2023-05-06T20:01:21.877Z,4.13
2023-05-06T20:03:48.838Z,4.13
2023-05-06T20:06:15.695Z,3.25
2023-05-06T20:08:42.466Z,4.90
2023-05-06T20:11:09.275Z,3.40
2023-05-06T20:13:36.062Z,3.33
2023-05-06T20:16:03.390Z,3.67
2023-05-06T20:18:31.869Z,5.47
2023-05-06T20:20:58.629Z,7.60
2023-05-06T20:23:25.885Z,5.07
2023-05-06T20:25:53.164Z,3.17
2023-05-06T20:28:19.902Z,6.07
2023-05-06T20:30:48.083Z,3.58
2023-05-06T20:33:14.883Z,3.10
2023-05-06T20:35:42.628Z,4.30
2023-05-06T20:38:10.871Z,5.07
2023-05-06T20:40:37.663Z,3.35
2023-05-06T20:43:04.428Z,5.22
2023-05-06T20:45:31.498Z,3.17
2023-05-06T20:47:58.719Z,3.53
2023-05-06T20:50:25.837Z,3.42
2023-05-06T20:52:54.290Z,6.07
2023-05-06T20:55:23.220Z,5.50
2023-05-06T20:57:50.228Z,4.20
2023-05-06T21:00:17.486Z,5.10
2023-05-06T21:02:44.278Z,5.32
2023-05-06T21:05:11.762Z,4.07
2023-05-06T21:07:39.017Z,4.03
2023-05-06T21:10:06.144Z,5.45
2023-05-06T21:12:37.915Z,4.20
2023-05-06T21:15:05.163Z,4.63
2023-05-06T21:17:31.984Z,3.35
2023-05-06T21:19:58.857Z,3.40
2023-05-06T21:22:26.036Z,3.38
2023-05-06T21:24:52.799Z,7.85
2023-05-06T21:27:19.568Z,4.18
2023-05-06T21:29:46.623Z,4.38
2023-05-06T21:32:13.443Z,4.35
2023-05-06T21:34:40.175Z,3.58
2023-05-06T21:37:07.057Z,4.63
2023-05-06T21:39:33.848Z,3.35
2023-05-06T21:42:00.670Z,4.30
2023-05-06T21:44:27.424Z,5.15
2023-05-06T21:46:54.302Z,7.05
2023-05-06T21:49:22.307Z,7.47
2023-05-06T21:51:49.394Z,6.60
2023-05-06T21:54:17.352Z,4.32
2023-05-06T21:56:45.115Z,4.57
2023-05-06T21:59:11.872Z,4.75
2023-05-06T22:01:39.018Z,4.60
2023-05-06T22:04:11.100Z,3.13
2023-05-06T22:06:39.055Z,5.20
2023-05-06T22:09:09.290Z,4.05
2023-05-06T22:11:37.948Z,6.88
2023-05-06T22:14:05.972Z,5.47
2023-05-06T22:16:35.381Z,5.75
2023-05-06T22:19:03.889Z,7.32
2023-05-06T22:21:31.936Z,4.72
2023-05-06T22:23:58.781Z,4.50
2023-05-06T22:26:28.011Z,6.63
2023-05-06T22:28:56.309Z,4.78
2023-05-06T22:31:24.681Z,6.03
2023-05-06T22:33:55.470Z,4.82
2023-05-06T22:36:22.531Z,5.90
2023-05-06T22:38:49.358Z,6.88
2023-05-06T22:41:17.505Z,4.88
2023-05-06T22:43:44.285Z,6.50
2023-05-06T22:46:11.152Z,5.63
2023-05-06T22:48:38.019Z,8.65
2023-05-06T22:51:05.057Z,6.05
2023-05-06T22:53:32.010Z,6.35
2023-05-06T22:55:58.875Z,5.25
2023-05-06T22:58:25.716Z,6.03
2023-05-06T23:00:54.133Z,6.90
2023-05-06T23:03:22.496Z,5.05
2023-05-06T23:05:49.803Z,5.82
2023-05-06T23:08:16.654Z,6.05
2023-05-06T23:10:43.458Z,6.07
2023-05-06T23:13:10.277Z,5.80
2023-05-06T23:15:37.097Z,5.57
2023-05-06T23:18:04.441Z,5.35
2023-05-06T23:20:31.292Z,5.20
2023-05-06T23:22:59.233Z,5.28
2023-05-06T23:25:26.962Z,7.63
2023-05-06T23:27:53.812Z,6.97
2023-05-06T23:30:20.691Z,7.97
2023-05-06T23:32:47.421Z,6.95
2023-05-06T23:35:14.190Z,9.10
2023-05-06T23:37:40.941Z,6.28
2023-05-06T23:40:08.116Z,5.88
2023-05-06T23:42:34.995Z,7.38
2023-05-06T23:45:01.680Z,7.15
2023-05-06T23:47:28.361Z,5.57
2023-05-06T23:49:55.082Z,6.88
2023-05-06T23:52:21.776Z,6.70
2023-05-06T23:54:48.693Z,7.65
2023-05-06T23:57:15.486Z,6.07
2023-05-06T23:59:42.572Z,6.68
